Newberg, Oregon
Current Conditions -  °F | °C
As of 6:53 PM on Friday 31 Oct 2014 (Local Time) from KUAO Reporting Station
Scattered Clouds Scattered Clouds  
Wind Chill: 50°   Ceiling: Unl
Heat Index: 50°   Visibility: 10mi
Dew Point: 46°   Wind: 8mph
Humidity: 86%   Direction: 350°N
Pressure: 29.86"   Gusts: NA
Location:  45.3°N, 122.97°W
Report Text: KUAO 010153Z AUTO 35007KT 10SM FEW030 SCT039 10/08 A2986 RMK AO2 SLP111 T01000078
Loading
Personal Weather Stations






























Interactive Weather Map
Tropical Storm Tracking
New forecast layout! Learn more

10-Day Weather Forecast

Advertisements
Track Severe Weather on mobile